Time;durP1;ratioP1;P1;durP2;ratioP2;P2;SDS_P1;SDS_P2;PMS_P1;PMS_P2;Temp;Humidity;BMP_temperature;BMP_pressure;BME280_temperature;BME280_humidity;BME280_pressure;Samples;Min_cycle;Max_cycle;Signal;HPM_P1;HPM_P2
2022/11/11 00:00:31;;;;;;;29.58;17.67;;;11.10;99.90;;;;;;5072668;28;20025;-73
2022/11/11 00:02:57;;;;;;;25.08;17.42;;;11.10;99.90;;;;;;5073217;28;20035;-73
2022/11/11 00:05:24;;;;;;;30.42;17.85;;;11.10;99.90;;;;;;5073565;28;20025;-73
2022/11/11 00:07:58;;;;;;;23.70;16.15;;;11.20;99.90;;;;;;5072687;28;20021;-72
2022/11/11 00:10:25;;;;;;;29.08;19.02;;;11.10;99.90;;;;;;5073205;28;20032;-73
2022/11/11 00:12:50;;;;;;;28.80;17.25;;;11.20;99.90;;;;;;5072882;28;20081;-72
2022/11/11 00:15:16;;;;;;;28.25;18.45;;;11.10;99.90;;;;;;5072631;28;20020;-72
2022/11/11 00:26:10;;;;;;;31.98;19.05;;;11.00;99.90;;;;;;5061508;28;20492;-73
2022/11/11 00:28:40;;;;;;;29.15;20.60;;;11.00;99.90;;;;;;5071672;28;20048;-74
2022/11/11 00:31:11;;;;;;;27.48;18.50;;;11.00;99.90;;;;;;5072623;28;20082;-73
2022/11/11 00:33:39;;;;;;;28.50;20.33;;;10.90;99.90;;;;;;5072756;28;20020;-73
2022/11/11 00:36:06;;;;;;;28.30;18.75;;;10.80;99.90;;;;;;5071854;28;20032;-72
2022/11/11 00:38:48;;;;;;;30.23;20.05;;;10.80;99.90;;;;;;5072126;28;20480;-72
2022/11/11 00:41:16;;;;;;;29.67;19.80;;;10.70;99.90;;;;;;5072575;28;20021;-72
2022/11/11 00:43:43;;;;;;;28.15;19.98;;;10.80;99.90;;;;;;5070942;28;20055;-72
2022/11/11 00:51:37;;;;;;;31.95;20.35;;;10.70;99.90;;;;;;5072437;28;20036;-74
2022/11/11 00:54:03;;;;;;;31.27;20.85;;;10.60;99.90;;;;;;5072311;28;20029;-72
2022/11/11 00:56:28;;;;;;;32.97;20.10;;;10.60;99.90;;;;;;5071227;28;20054;-72
2022/11/11 00:58:54;;;;;;;29.38;20.92;;;10.60;99.90;;;;;;5072875;28;20040;-72
2022/11/11 01:01:19;;;;;;;30.33;20.58;;;10.70;99.90;;;;;;5072459;28;20016;-72
2022/11/11 01:03:45;;;;;;;32.13;20.42;;;10.80;99.90;;;;;;5071417;28;20124;-73
2022/11/11 01:06:12;;;;;;;35.53;22.02;;;10.80;99.90;;;;;;5072288;28;20016;-73
2022/11/11 01:08:38;;;;;;;30.88;21.02;;;10.90;99.90;;;;;;5071838;28;20125;-73
2022/11/11 01:11:10;;;;;;;41.60;22.23;;;10.80;99.90;;;;;;5071716;28;20109;-73
2022/11/11 01:13:36;;;;;;;36.15;22.65;;;10.80;99.90;;;;;;5072058;28;20042;-73
2022/11/11 01:16:06;;;;;;;36.92;21.55;;;10.80;99.90;;;;;;5072325;28;20107;-73
2022/11/11 01:18:33;;;;;;;38.05;22.27;;;10.70;99.90;;;;;;5056802;28;20035;-73
2022/11/11 01:21:06;;;;;;;34.63;22.50;;;10.70;99.90;;;;;;5072157;28;20077;-73
2022/11/11 01:23:35;;;;;;;37.78;23.70;;;10.70;99.90;;;;;;5071827;28;20042;-73
2022/11/11 01:26:05;;;;;;;31.33;20.95;;;10.70;99.90;;;;;;5071090;28;20031;-74
2022/11/11 01:28:31;;;;;;;33.58;21.27;;;10.70;99.90;;;;;;5071353;28;20138;-73
2022/11/11 01:31:02;;;;;;;37.28;22.55;;;10.70;99.90;;;;;;5071648;28;20112;-73
2022/11/11 01:33:27;;;;;;;37.97;22.17;;;10.70;99.90;;;;;;5071424;28;20078;-72
2022/11/11 01:35:53;;;;;;;36.60;22.98;;;10.60;99.90;;;;;;5072402;28;20114;-73
2022/11/11 01:38:18;;;;;;;41.63;23.73;;;10.60;99.90;;;;;;5071425;28;20492;-72
2022/11/11 01:40:47;;;;;;;33.92;23.58;;;10.60;99.90;;;;;;5071761;28;20134;-72
2022/11/11 01:43:18;;;;;;;40.88;23.13;;;10.50;99.90;;;;;;5075252;28;20028;-73
2022/11/11 01:45:49;;;;;;;41.15;23.58;;;10.60;99.90;;;;;;5075030;28;20099;-73
2022/11/11 01:52:02;;;;;;;33.47;22.30;;;10.60;99.90;;;;;;5075697;28;20111;-73
2022/11/11 01:54:52;;;;;;;42.15;23.58;;;10.60;99.90;;;;;;5044100;28;20051;-72
2022/11/11 01:57:43;;;;;;;44.90;23.55;;;10.50;99.90;;;;;;5057530;28;20458;-73
2022/11/11 02:00:22;;;;;;;40.28;23.65;;;10.40;99.90;;;;;;5085544;28;20139;-72
2022/11/11 02:02:53;;;;;;;44.88;23.02;;;10.40;99.90;;;;;;5074869;28;20021;-72
2022/11/11 02:08:10;;;;;;;33.35;23.30;;;10.40;99.90;;;;;;5074885;28;20507;-72
2022/11/11 02:10:38;;;;;;;40.25;25.08;;;10.30;99.90;;;;;;5075489;28;20047;-72
2022/11/11 02:15:55;;;;;;;;;;;10.20;99.90;;;;;;5076027;28;20066;-73
2022/11/11 02:18:20;;;;;;;39.80;23.95;;;10.20;99.90;;;;;;5061020;28;19952;-73
2022/11/11 02:20:46;;;;;;;37.58;23.13;;;10.20;99.90;;;;;;5066567;28;20025;-73
2022/11/11 02:23:33;;;;;;;41.45;25.42;;;10.20;99.90;;;;;;5075266;28;20024;-72
2022/11/11 02:26:01;;;;;;;40.85;26.15;;;10.20;99.90;;;;;;5075131;28;20040;-72
2022/11/11 02:28:28;;;;;;;41.45;25.45;;;10.20;99.90;;;;;;5069644;28;20052;-74
2022/11/11 02:30:53;;;;;;;41.20;23.92;;;10.20;99.90;;;;;;5065978;28;20089;-73
2022/11/11 02:33:19;;;;;;;41.22;25.42;;;10.20;99.90;;;;;;5075213;28;20111;-73
2022/11/11 02:35:56;;;;;;;40.22;25.58;;;10.20;99.90;;;;;;5074711;28;20025;-74
2022/11/11 02:38:23;;;;;;;44.75;25.92;;;10.10;99.90;;;;;;5075332;28;20040;-72
2022/11/11 02:43:33;;;;;;;38.60;24.70;;;10.10;99.90;;;;;;5074607;28;20070;-72
2022/11/11 02:46:01;;;;;;;38.33;24.42;;;10.10;99.90;;;;;;5074891;28;20052;-73
2022/11/11 02:48:27;;;;;;;39.55;25.00;;;10.10;99.90;;;;;;5073417;28;20051;-72
2022/11/11 02:50:53;;;;;;;54.53;27.13;;;10.10;99.90;;;;;;5075017;28;20456;-72
2022/11/11 02:53:19;;;;;;;36.83;24.77;;;10.20;99.90;;;;;;5074229;28;20063;-72
2022/11/11 02:55:44;;;;;;;36.03;24.05;;;10.10;99.90;;;;;;5059188;28;20024;-72
2022/11/11 02:58:10;;;;;;;36.20;23.40;;;10.10;99.90;;;;;;5074368;28;20047;-73
2022/11/11 03:00:36;;;;;;;39.10;24.70;;;10.10;99.90;;;;;;5074073;28;20373;-73
2022/11/11 03:03:01;;;;;;;38.63;25.00;;;10.20;99.90;;;;;;5073759;28;20025;-73
2022/11/11 03:05:27;;;;;;;41.03;26.50;;;10.20;99.90;;;;;;5073859;28;20043;-73
2022/11/11 03:07:52;;;;;;;38.08;22.90;;;10.20;99.90;;;;;;5074087;28;20491;-73
2022/11/11 03:10:18;;;;;;;39.60;24.25;;;10.10;99.90;;;;;;5073989;28;20020;-72
2022/11/11 03:12:43;;;;;;;31.40;22.45;;;10.00;99.90;;;;;;5074066;28;20038;-72
2022/11/11 03:15:09;;;;;;;37.65;23.48;;;10.10;99.90;;;;;;5074456;28;20059;-72
2022/11/11 03:17:38;;;;;;;34.45;23.65;;;10.00;99.90;;;;;;5073405;28;20075;-72
2022/11/11 03:23:11;;;;;;;34.67;22.70;;;10.00;99.90;;;;;;5073946;28;20526;-72
2022/11/11 03:25:39;;;;;;;32.25;23.27;;;10.00;99.90;;;;;;5073294;28;20031;-72
2022/11/11 03:28:14;;;;;;;34.70;22.73;;;9.90;99.90;;;;;;5069502;28;20028;-72
2022/11/11 03:30:42;;;;;;;38.22;21.85;;;9.90;99.90;;;;;;5063844;28;20040;-74
2022/11/11 03:33:08;;;;;;;32.90;22.45;;;9.90;99.90;;;;;;5073702;28;20273;-73
2022/11/11 03:35:34;;;;;;;35.22;22.52;;;9.90;99.90;;;;;;5073294;28;20086;-73
2022/11/11 03:38:17;;;;;;;37.63;23.23;;;9.80;99.90;;;;;;5072720;28;20476;-71
2022/11/11 03:40:47;;;;;;;38.10;22.13;;;9.90;99.90;;;;;;5073177;28;20029;-72
2022/11/11 03:43:15;;;;;;;41.42;23.42;;;9.90;99.90;;;;;;5073272;28;20380;-73
2022/11/11 03:45:42;;;;;;;32.78;22.08;;;9.90;99.90;;;;;;5072735;28;20086;-73
2022/11/11 03:48:08;;;;;;;36.78;24.48;;;9.90;99.90;;;;;;5072439;28;20058;-73
2022/11/11 03:50:33;;;;;;;33.17;22.77;;;10.00;99.90;;;;;;5073463;28;20476;-72
2022/11/11 03:52:59;;;;;;;37.78;22.17;;;10.00;99.90;;;;;;5071945;28;20033;-73
2022/11/11 03:55:25;;;;;;;45.13;21.98;;;10.00;99.90;;;;;;5072759;28;20027;-73
2022/11/11 03:57:50;;;;;;;30.00;23.08;;;9.90;99.90;;;;;;5073667;28;20070;-73
2022/11/11 04:00:27;;;;;;;37.65;23.67;;;9.90;99.90;;;;;;5072190;28;20353;-73
2022/11/11 04:11:32;;;;;;;39.85;23.40;;;9.90;99.90;;;;;;5072804;28;20027;-72
2022/11/11 04:16:46;;;;;;;38.72;23.00;;;9.80;99.90;;;;;;5072838;28;20055;-72
2022/11/11 04:22:17;;;;;;;31.55;22.75;;;9.70;99.90;;;;;;5072312;28;20546;-73
2022/11/11 04:27:33;;;;;;;30.15;21.50;;;9.60;99.90;;;;;;5072138;28;20036;-71
2022/11/11 04:29:58;;;;;;;30.48;23.15;;;9.40;99.90;;;;;;5058749;28;20448;-73
2022/11/11 04:32:39;;;;;;;42.60;24.88;;;9.40;99.90;;;;;;5072613;28;20035;-72
2022/11/11 04:35:08;;;;;;;;;;;9.40;99.90;;;;;;5072520;28;20020;-73
2022/11/11 04:37:46;;;;;;;35.22;22.83;;;9.40;99.90;;;;;;5072332;28;19982;-72
2022/11/11 04:42:55;;;;;;;43.08;24.23;;;9.30;99.90;;;;;;5071978;28;20146;-72
2022/11/11 04:45:27;;;;;;;33.55;23.23;;;9.30;99.90;;;;;;5072099;28;20031;-72
2022/11/11 04:47:53;;;;;;;40.20;24.42;;;9.30;99.90;;;;;;5071658;28;20032;-72
2022/11/11 04:50:19;;;;;;;34.85;23.35;;;9.30;99.90;;;;;;5072086;28;20013;-73
2022/11/11 04:52:45;;;;;;;35.03;23.88;;;9.30;99.90;;;;;;5071951;28;20070;-73
2022/11/11 04:57:55;;;;;;;34.38;23.80;;;9.30;99.90;;;;;;5072225;28;20086;-73
2022/11/11 05:00:20;;;;;;;31.75;21.98;;;9.30;99.90;;;;;;5071882;28;20016;-73
2022/11/11 05:08:54;;;;;;;36.63;23.70;;;9.30;99.90;;;;;;5071838;28;20156;-72
2022/11/11 05:11:03;;;;;;;34.88;23.63;;;9.30;99.90;;;;;;5059426;28;20032;-72
2022/11/11 05:21:48;;;;;;;38.08;24.90;;;9.20;99.90;;;;;;5071917;28;20035;-72
2022/11/11 05:26:58;;;;;;;34.15;23.65;;;9.10;99.90;;;;;;5072339;28;20047;-72
2022/11/11 05:29:23;;;;;;;36.33;23.50;;;9.20;99.90;;;;;;5057185;28;20045;-72
2022/11/11 05:31:49;;;;;;;37.42;24.35;;;9.20;99.90;;;;;;5071288;28;20023;-73
2022/11/11 05:34:20;;;;;;;32.88;23.55;;;9.10;99.90;;;;;;5072115;28;20468;-73
2022/11/11 05:36:46;;;;;;;33.58;21.90;;;9.20;99.90;;;;;;5071012;28;20511;-73
2022/11/11 05:39:11;;;;;;;31.67;21.27;;;9.10;99.90;;;;;;5071061;28;20069;-73
2022/11/11 05:41:37;;;;;;;35.40;23.10;;;9.10;99.90;;;;;;5071643;28;20028;-73
2022/11/11 05:44:03;;;;;;;37.58;23.95;;;9.10;99.90;;;;;;5071592;28;20024;-73
2022/11/11 05:46:28;;;;;;;34.38;22.92;;;9.00;99.90;;;;;;5071464;28;20024;-72
2022/11/11 05:51:38;;;;;;;35.22;21.92;;;9.00;99.90;;;;;;5070817;28;20105;-72
2022/11/11 05:54:03;;;;;;;31.15;21.02;;;9.10;99.90;;;;;;5071574;28;20025;-72
2022/11/11 05:56:29;;;;;;;31.83;22.42;;;9.10;99.90;;;;;;5071030;28;20036;-73
2022/11/11 05:58:55;;;;;;;34.13;21.55;;;9.20;99.90;;;;;;5070901;28;20067;-72
2022/11/11 06:01:20;;;;;;;39.67;21.80;;;9.20;99.90;;;;;;5072340;28;20032;-71
2022/11/11 06:03:46;;;;;;;36.17;22.60;;;9.20;99.90;;;;;;5067558;28;20063;-72
2022/11/11 06:06:12;;;;;;;38.30;22.67;;;9.20;99.90;;;;;;5061180;28;20036;-73
2022/11/11 06:08:38;;;;;;;34.95;22.90;;;9.30;99.90;;;;;;5076976;28;20039;-74
2022/11/11 06:11:06;;;;;;;29.88;21.30;;;9.30;99.90;;;;;;5074518;28;20080;-73
2022/11/11 06:13:34;;;;;;;33.35;21.30;;;9.30;99.90;;;;;;5069611;28;20464;-73
2022/11/11 06:16:01;;;;;;;37.35;22.90;;;9.30;99.90;;;;;;5070834;28;20025;-73
2022/11/11 06:18:26;;;;;;;35.55;22.60;;;9.30;99.90;;;;;;5071858;28;20449;-72
2022/11/11 06:20:56;;;;;;;37.17;22.60;;;9.40;99.90;;;;;;5069910;28;20048;-72
2022/11/11 06:23:22;;;;;;;32.40;23.60;;;9.40;99.90;;;;;;5075370;28;20379;-73
2022/11/11 06:28:32;;;;;;;32.45;23.10;;;9.50;99.90;;;;;;5070607;28;20039;-72
2022/11/11 06:30:57;;;;;;;33.67;22.15;;;9.40;99.90;;;;;;5072972;28;20025;-73
2022/11/11 06:33:23;;;;;;;29.25;21.33;;;9.40;99.90;;;;;;5072049;28;20081;-73
2022/11/11 06:35:49;;;;;;;32.00;21.75;;;9.40;99.90;;;;;;5072433;28;20119;-73
2022/11/11 06:38:15;;;;;;;35.35;22.23;;;9.30;99.90;;;;;;5072872;28;20044;-74
2022/11/11 06:40:42;;;;;;;32.40;22.25;;;9.30;99.90;;;;;;5072070;28;20043;-72
2022/11/11 06:43:07;;;;;;;24.60;19.52;;;9.20;99.90;;;;;;5072903;28;20032;-72
2022/11/11 06:45:34;;;;;;;31.10;20.30;;;9.20;99.90;;;;;;5072768;28;20028;-72
2022/11/11 06:48:01;;;;;;;36.33;21.45;;;9.20;99.90;;;;;;5071937;28;20051;-72
2022/11/11 06:50:27;;;;;;;27.88;20.65;;;9.20;99.90;;;;;;5072464;28;20016;-73
2022/11/11 06:52:54;;;;;;;30.48;19.80;;;9.10;99.90;;;;;;5074513;28;20029;-72
2022/11/11 06:55:19;;;;;;;37.33;22.42;;;9.10;99.90;;;;;;5088308;28;20020;-72
2022/11/11 06:57:45;;;;;;;35.50;21.08;;;9.00;99.90;;;;;;5088009;28;20040;-72
2022/11/11 07:00:14;;;;;;;36.28;23.33;;;8.90;99.90;;;;;;5062688;28;20487;-72
2022/11/11 07:02:42;;;;;;;36.10;22.63;;;8.90;99.90;;;;;;5053529;28;20037;-72
2022/11/11 07:05:08;;;;;;;34.22;21.85;;;8.90;99.90;;;;;;5054756;28;20032;-72
2022/11/11 07:07:34;;;;;;;29.67;21.95;;;8.90;99.90;;;;;;5056836;28;20029;-72
2022/11/11 07:10:00;;;;;;;38.92;22.90;;;8.80;99.90;;;;;;5054797;28;20017;-71
2022/11/11 07:12:25;;;;;;;37.08;22.38;;;8.90;99.90;;;;;;5058555;28;20024;-72
2022/11/11 07:14:51;;;;;;;31.30;20.33;;;8.90;99.90;;;;;;5056659;28;20017;-72
2022/11/11 07:17:17;;;;;;;29.65;20.92;;;8.90;99.90;;;;;;5053817;28;20047;-73
2022/11/11 07:19:42;;;;;;;28.73;21.60;;;8.90;99.90;;;;;;5061352;28;20028;-72
2022/11/11 07:22:08;;;;;;;26.80;20.08;;;8.90;99.90;;;;;;5070463;28;20039;-72
2022/11/11 07:24:33;;;;;;;29.92;20.73;;;8.90;99.90;;;;;;5072155;28;20444;-72
2022/11/11 07:27:00;;;;;;;31.08;20.35;;;8.90;99.90;;;;;;5073153;28;20025;-72
2022/11/11 07:29:28;;;;;;;32.05;21.48;;;8.90;99.90;;;;;;5072726;28;20041;-72
2022/11/11 07:31:53;;;;;;;31.30;21.00;;;8.90;99.90;;;;;;5072487;28;20021;-73
2022/11/11 07:34:21;;;;;;;32.65;20.40;;;8.90;99.90;;;;;;5072946;28;20070;-73
2022/11/11 07:36:46;;;;;;;32.85;20.63;;;9.00;99.90;;;;;;5071949;28;20025;-72
2022/11/11 07:39:15;;;;;;;25.88;20.08;;;9.10;99.90;;;;;;5072307;28;20016;-72
2022/11/11 07:41:40;;;;;;;36.58;21.48;;;9.20;99.90;;;;;;5072777;28;20041;-73
2022/11/11 07:44:06;;;;;;;29.60;19.80;;;9.30;99.90;;;;;;5072421;28;20104;-74
2022/11/11 07:46:31;;;;;;;32.63;20.45;;;9.30;99.90;;;;;;5070121;28;20487;-73
2022/11/11 07:48:57;;;;;;;29.95;19.98;;;9.40;99.90;;;;;;5071530;28;20488;-73
2022/11/11 07:51:23;;;;;;;31.05;21.15;;;9.40;99.90;;;;;;5072450;28;20024;-73
2022/11/11 07:53:48;;;;;;;35.05;20.67;;;9.50;99.90;;;;;;5072892;28;20480;-73
2022/11/11 07:56:14;;;;;;;37.63;20.17;;;9.50;99.90;;;;;;5073070;28;20074;-72
2022/11/11 07:58:39;;;;;;;30.98;21.33;;;9.50;99.90;;;;;;5071772;28;20430;-72
2022/11/11 08:01:05;;;;;;;34.78;21.52;;;9.60;99.90;;;;;;5072762;28;20477;-73
2022/11/11 08:03:30;;;;;;;28.80;20.90;;;9.70;99.90;;;;;;5073350;28;20122;-73
2022/11/11 08:05:56;;;;;;;40.55;23.92;;;9.70;99.90;;;;;;5072777;28;20020;-73
2022/11/11 08:08:25;;;;;;;32.15;23.65;;;9.70;99.90;;;;;;5074136;28;20085;-74
2022/11/11 08:10:54;;;;;;;42.75;24.92;;;9.80;99.90;;;;;;5072558;28;20092;-72
2022/11/11 08:16:05;;;;;;;40.58;25.40;;;9.90;99.90;;;;;;5064454;28;20031;-73
2022/11/11 08:18:34;;;;;;;41.03;24.67;;;10.00;99.90;;;;;;5087330;28;20036;-73
2022/11/11 08:21:01;;;;;;;37.17;24.75;;;9.90;99.90;;;;;;5081222;28;20016;-73
2022/11/11 08:23:33;;;;;;;41.20;26.10;;;10.00;99.90;;;;;;5086408;28;20111;-72
2022/11/11 08:26:05;;;;;;;41.88;25.52;;;10.00;99.90;;;;;;5073136;28;20035;-73
2022/11/11 08:28:32;;;;;;;37.22;24.45;;;10.00;99.90;;;;;;5062842;28;20025;-73
2022/11/11 08:30:59;;;;;;;38.42;24.63;;;10.10;99.90;;;;;;5067760;28;20082;-72
2022/11/11 08:33:25;;;;;;;38.50;24.85;;;10.10;99.90;;;;;;5073172;28;20511;-73
2022/11/11 08:35:54;;;;;;;40.72;26.73;;;10.20;99.90;;;;;;5065336;28;20033;-72
2022/11/11 08:38:23;;;;;;;41.42;27.50;;;10.20;99.90;;;;;;5072150;28;20115;-73
2022/11/11 08:40:49;;;;;;;41.28;25.95;;;10.20;99.90;;;;;;5084350;28;20023;-72
2022/11/11 08:43:15;;;;;;;38.95;26.33;;;10.20;99.90;;;;;;5084594;28;20543;-72
2022/11/11 08:45:41;;;;;;;37.88;25.85;;;10.20;99.90;;;;;;5073666;28;20060;-72
2022/11/11 08:48:10;;;;;;;37.95;26.42;;;10.30;99.90;;;;;;5053382;28;20025;-72
2022/11/11 08:50:39;;;;;;;41.00;27.30;;;10.30;99.90;;;;;;5068596;28;20062;-72
2022/11/11 08:53:07;;;;;;;42.67;28.35;;;10.30;99.90;;;;;;5095896;28;20020;-69
2022/11/11 08:55:36;;;;;;;44.72;27.88;;;10.40;99.90;;;;;;5077831;28;20027;-71
2022/11/11 08:58:05;;;;;;;36.92;26.25;;;10.40;99.90;;;;;;5080726;28;20029;-72
2022/11/11 09:00:31;;;;;;;43.85;27.83;;;10.40;99.90;;;;;;5080544;28;20013;-71
2022/11/11 09:03:05;;;;;;;42.05;28.50;;;10.40;99.90;;;;;;5080754;28;20051;-71
2022/11/11 09:05:31;;;;;;;44.38;28.25;;;10.50;99.90;;;;;;5075494;28;20021;-72
2022/11/11 09:08:01;;;;;;;45.10;28.83;;;10.50;99.90;;;;;;5075276;28;20031;-72
2022/11/11 09:10:27;;;;;;;;;;;10.50;99.90;;;;;;5079494;28;20073;-71
2022/11/11 09:12:56;;;;;;;50.38;29.10;;;10.60;99.90;;;;;;5071024;28;19983;-70
2022/11/11 09:15:22;;;;;;;48.40;29.13;;;10.60;99.90;;;;;;5073120;28;20105;-75
2022/11/11 09:17:48;;;;;;;45.30;28.27;;;10.60;99.90;;;;;;5061457;28;20044;-73
2022/11/11 09:20:14;;;;;;;42.95;29.25;;;10.60;99.90;;;;;;5064128;28;20036;-72
2022/11/11 09:22:44;;;;;;;46.10;29.20;;;10.60;99.90;;;;;;5070908;28;20555;-71
2022/11/11 09:25:10;;;;;;;48.83;31.80;;;10.60;99.90;;;;;;5074816;28;20016;-73
2022/11/11 09:27:36;;;;;;;56.50;30.83;;;10.60;99.90;;;;;;5069442;28;20020;-74
2022/11/11 09:30:02;;;;;;;50.67;31.33;;;10.60;99.90;;;;;;5062165;28;20051;-74
2022/11/11 09:32:27;;;;;;;51.17;31.50;;;10.60;99.90;;;;;;5071039;28;20027;-73
2022/11/11 09:34:56;;;;;;;43.47;30.50;;;10.80;99.90;;;;;;5071695;28;20578;-75
2022/11/11 09:37:21;;;;;;;44.17;29.92;;;10.70;99.90;;;;;;5070638;28;20569;-74
2022/11/11 09:39:47;;;;;;;49.53;31.33;;;10.70;99.90;;;;;;5072172;28;20095;-74
2022/11/11 09:42:43;;;;;;;46.83;29.58;;;10.30;99.90;;;;;;5064542;28;20488;-74
2022/11/11 09:45:35;;;;;;;43.55;28.95;;;10.70;99.90;;;;;;5058786;28;20024;-74
2022/11/11 09:48:14;;;;;;;49.35;31.33;;;10.70;99.90;;;;;;5064938;28;20044;-74
2022/11/11 09:50:42;;;;;;;42.17;30.08;;;10.80;99.90;;;;;;5062567;28;20039;-74
2022/11/11 09:53:28;;;;;;;45.08;30.42;;;10.90;99.90;;;;;;5072972;28;20060;-74
2022/11/11 09:56:03;;;;;;;49.47;30.15;;;10.90;99.90;;;;;;5071136;28;20033;-74
2022/11/11 09:58:37;;;;;;;48.83;31.45;;;10.90;99.90;;;;;;5069648;28;20135;-74
2022/11/11 10:01:12;;;;;;;44.05;30.15;;;10.90;99.90;;;;;;5089278;28;20043;-73
2022/11/11 10:03:44;;;;;;;49.75;31.63;;;10.90;99.90;;;;;;5088112;28;20066;-74
2022/11/11 10:06:22;;;;;;;48.45;32.35;;;10.90;99.90;;;;;;5092772;28;20429;-76
2022/11/11 10:09:01;;;;;;;44.80;30.45;;;11.00;99.90;;;;;;5089907;28;20027;-74
2022/11/11 10:11:47;;;;;;;45.05;29.73;;;11.00;99.90;;;;;;5092226;28;20019;-74
2022/11/11 10:14:12;;;;;;;42.95;30.60;;;11.00;99.90;;;;;;5071564;28;20060;-74
2022/11/11 10:17:02;;;;;;;43.72;29.13;;;11.10;99.90;;;;;;5092369;28;20063;-74
2022/11/11 10:19:33;;;;;;;45.15;27.33;;;11.10;99.90;;;;;;5086487;28;20107;-74
2022/11/11 10:22:04;;;;;;;45.15;28.58;;;11.10;99.90;;;;;;5083838;28;20016;-74
2022/11/11 10:24:39;;;;;;;36.42;27.10;;;11.20;99.90;;;;;;5074598;28;20024;-74
2022/11/11 10:27:19;;;;;;;41.78;28.95;;;11.20;99.90;;;;;;5091214;28;20048;-73
2022/11/11 10:29:46;;;;;;;42.65;29.98;;;11.30;99.90;;;;;;5060550;28;20090;-74
2022/11/11 10:32:24;;;;;;;44.35;29.48;;;11.30;99.90;;;;;;5073609;28;20541;-74
2022/11/11 10:34:50;;;;;;;42.78;30.40;;;11.40;99.90;;;;;;5074121;28;20598;-74
2022/11/11 10:37:23;;;;;;;45.30;30.48;;;11.40;99.90;;;;;;5075804;28;20123;-74
2022/11/11 10:40:19;;;;;;;39.95;29.73;;;11.50;99.90;;;;;;5075060;28;20024;-75
2022/11/11 10:42:45;;;;;;;45.78;30.88;;;11.50;99.90;;;;;;5075308;28;20021;-74
2022/11/11 10:45:23;;;;;;;44.42;30.60;;;11.50;99.90;;;;;;5075216;28;20107;-74
2022/11/11 10:48:14;;;;;;;43.55;30.13;;;11.50;99.90;;;;;;5074915;28;20118;-75
2022/11/11 10:50:48;;;;;;;44.10;29.33;;;11.60;99.90;;;;;;5075729;28;20039;-75
2022/11/11 10:54:00;;;;;;;42.72;30.48;;;11.60;99.90;;;;;;5075424;28;20067;-75
2022/11/11 10:56:37;;;;;;;43.08;30.77;;;11.60;99.90;;;;;;5074358;28;20165;-71
2022/11/11 10:59:20;;;;;;;41.50;29.13;;;11.70;99.90;;;;;;5075249;28;20036;-76
2022/11/11 11:01:56;;;;;;;41.92;29.60;;;11.70;99.90;;;;;;5075324;28;20035;-76
2022/11/11 11:04:28;;;;;;;40.10;28.75;;;11.80;99.90;;;;;;5076090;28;20029;-76
2022/11/11 11:06:56;;;;;;;42.80;30.25;;;11.80;99.90;;;;;;5075056;28;20460;-74
2022/11/11 11:09:35;;;;;;;40.70;29.73;;;11.80;99.90;;;;;;5074963;28;20032;-75
2022/11/11 11:12:16;;;;;;;38.83;28.77;;;11.70;99.90;;;;;;5075820;28;20111;-74
2022/11/11 11:14:44;;;;;;;41.33;28.95;;;11.80;99.90;;;;;;5074294;28;20086;-75
2022/11/11 11:17:18;;;;;;;41.75;29.27;;;11.70;99.90;;;;;;5075033;28;20040;-76
2022/11/11 11:19:44;;;;;;;39.78;28.77;;;11.80;99.90;;;;;;5062938;28;20773;-74
2022/11/11 11:22:10;;;;;;;36.65;27.80;;;11.70;99.90;;;;;;5057375;28;20051;-70
2022/11/11 11:24:36;;;;;;;34.47;26.85;;;11.70;99.90;;;;;;5072810;28;20024;-77
2022/11/11 11:27:06;;;;;;;36.67;26.33;;;11.70;99.90;;;;;;5062921;28;20380;-76
2022/11/11 11:29:33;;;;;;;40.72;27.15;;;11.70;99.90;;;;;;5062678;28;20060;-76
2022/11/11 11:32:17;;;;;;;34.60;25.92;;;11.60;99.90;;;;;;5076367;28;20111;-75
2022/11/11 11:34:54;;;;;;;35.92;25.85;;;11.60;99.90;;;;;;5085526;28;20038;-75
2022/11/11 11:37:24;;;;;;;38.50;26.42;;;11.60;99.90;;;;;;5086567;28;20035;-75
2022/11/11 11:40:05;;;;;;;38.13;27.30;;;11.70;99.90;;;;;;5086491;28;20024;-75
2022/11/11 11:42:34;;;;;;;37.65;27.63;;;11.60;99.90;;;;;;5087734;28;20024;-75
2022/11/11 11:45:27;;;;;;;39.28;25.88;;;11.70;99.90;;;;;;5085542;28;20017;-76
2022/11/11 11:48:32;;;;;;;33.65;25.50;;;11.80;99.90;;;;;;5075430;28;20620;-76
2022/11/11 11:51:20;;;;;;;38.28;26.60;;;11.70;99.90;;;;;;5043128;28;20028;-76
2022/11/11 11:53:55;;;;;;;41.13;27.70;;;11.80;99.90;;;;;;5055757;28;20031;-76
2022/11/11 11:56:37;;;;;;;33.72;26.45;;;12.00;99.90;;;;;;5068038;28;20029;-77
2022/11/11 11:59:18;;;;;;;35.00;26.20;;;12.00;99.90;;;;;;5069254;28;20044;-76
2022/11/11 12:02:11;;;;;;;29.67;23.88;;;12.10;99.90;;;;;;5071679;28;20028;-76
2022/11/11 12:05:09;;;;;;;28.38;23.38;;;12.10;99.90;;;;;;5069454;28;20036;-75
2022/11/11 12:07:53;;;;;;;32.15;23.35;;;12.10;99.90;;;;;;5039026;28;20553;-76
2022/11/11 12:10:38;;;;;;;28.77;20.38;;;12.20;99.90;;;;;;5063906;28;20060;-75
2022/11/11 12:13:06;;;;;;;27.10;19.10;;;12.20;99.90;;;;;;5061877;28;20044;-75
2022/11/11 12:16:03;;;;;;;26.35;19.17;;;12.30;99.90;;;;;;5068031;28;20116;-76
2022/11/11 12:18:46;;;;;;;26.63;18.02;;;12.40;99.90;;;;;;5056540;28;20041;-75
2022/11/11 12:21:14;;;;;;;26.75;17.55;;;12.50;99.90;;;;;;5066313;28;20024;-76
2022/11/11 12:23:57;;;;;;;21.75;18.55;;;12.50;99.90;;;;;;5070835;28;20056;-76
2022/11/11 12:26:31;;;;;;;21.27;18.73;;;12.60;99.90;;;;;;5065698;28;20103;-74
2022/11/11 12:29:27;;;;;;;23.55;18.70;;;12.60;99.90;;;;;;5067521;28;20032;-75
2022/11/11 12:32:31;;;;;;;22.48;18.15;;;12.70;99.90;;;;;;5072857;28;20054;-76
2022/11/11 12:35:11;;;;;;;20.60;16.80;;;12.80;99.90;;;;;;5069812;28;20033;-75
2022/11/11 12:37:55;;;;;;;28.50;17.77;;;12.90;99.90;;;;;;5073255;28;20028;-77
2022/11/11 12:40:43;;;;;;;25.25;17.13;;;12.90;99.90;;;;;;5072595;28;20025;-76
2022/11/11 12:43:31;;;;;;;22.40;16.20;;;13.00;99.90;;;;;;5072888;28;20112;-75
2022/11/11 12:46:14;;;;;;;22.45;16.98;;;13.00;99.90;;;;;;5072666;28;20396;-74
2022/11/11 12:49:11;;;;;;;20.30;15.65;;;13.20;99.90;;;;;;5072464;28;20052;-76
2022/11/11 12:51:36;;;;;;;24.88;16.33;;;13.20;99.90;;;;;;5072840;28;20127;-74
2022/11/11 12:54:22;;;;;;;18.08;14.80;;;13.20;99.90;;;;;;5072702;28;20519;-75
2022/11/11 12:57:27;;;;;;;22.25;16.05;;;13.30;99.90;;;;;;5033710;28;20040;-75
2022/11/11 13:00:08;;;;;;;18.80;14.65;;;13.40;99.90;;;;;;5073136;28;20044;-75
2022/11/11 13:03:07;;;;;;;19.23;14.50;;;13.40;99.90;;;;;;5072436;28;20489;-75
2022/11/11 13:05:54;;;;;;;15.63;13.35;;;13.50;99.90;;;;;;5072425;28;20020;-72
2022/11/11 13:08:43;;;;;;;19.00;13.20;;;13.50;99.90;;;;;;5073127;28;20111;-76
2022/11/11 13:11:36;;;;;;;17.92;12.27;;;13.50;99.90;;;;;;5062488;28;20111;-75
2022/11/11 13:14:06;;;;;;;14.95;10.73;;;13.60;99.90;;;;;;5073286;28;20024;-74
2022/11/11 13:16:32;;;;;;;15.13;10.13;;;13.50;99.90;;;;;;5078891;28;20016;-74
2022/11/11 13:19:45;;;;;;;11.35;10.20;;;13.60;99.90;;;;;;5078592;28;20048;-75
2022/11/11 13:22:14;;;;;;;10.23;8.95;;;13.50;99.90;;;;;;5059420;28;20094;-75
2022/11/11 13:24:39;;;;;;;17.17;9.80;;;13.50;99.90;;;;;;5072961;28;20029;-75
2022/11/11 13:27:17;;;;;;;12.18;8.30;;;13.50;99.90;;;;;;5072785;28;20020;-75
2022/11/11 13:30:04;;;;;;;13.45;8.10;;;13.40;99.90;;;;;;5055260;28;20076;-75
2022/11/11 13:32:54;;;;;;;10.30;7.85;;;13.50;99.90;;;;;;5072888;28;20025;-77
2022/11/11 13:35:55;;;;;;;9.73;7.43;;;13.40;99.90;;;;;;5071588;28;20430;-75
2022/11/11 13:38:32;;;;;;;8.13;7.35;;;13.40;99.90;;;;;;5076002;28;20029;-75
2022/11/11 13:41:02;;;;;;;10.23;6.85;;;13.40;99.90;;;;;;5076748;28;20037;-76
2022/11/11 13:43:32;;;;;;;8.47;7.10;;;13.40;99.90;;;;;;5076095;28;20024;-75
2022/11/11 13:46:01;;;;;;;11.35;7.43;;;13.40;99.90;;;;;;5076919;28;20777;-75
2022/11/11 13:48:45;;;;;;;10.30;7.28;;;13.40;99.90;;;;;;5076337;28;20038;-76
2022/11/11 13:51:24;;;;;;;12.95;6.55;;;13.40;99.90;;;;;;5076651;28;20093;-74
2022/11/11 13:53:53;;;;;;;11.82;6.35;;;13.50;99.90;;;;;;5076521;28;20020;-74
2022/11/11 13:56:23;;;;;;;11.18;5.75;;;13.50;99.90;;;;;;5076389;28;20534;-74
2022/11/11 13:58:49;;;;;;;7.50;5.30;;;13.60;99.90;;;;;;5076941;28;20037;-75
2022/11/11 14:01:16;;;;;;;7.85;5.20;;;13.60;99.90;;;;;;5076825;28;20028;-74
2022/11/11 14:03:44;;;;;;;10.57;5.68;;;13.60;99.90;;;;;;5075574;28;20024;-75
2022/11/11 14:06:16;;;;;;;6.35;5.75;;;13.60;99.90;;;;;;5076515;28;20104;-75
2022/11/11 14:08:44;;;;;;;6.28;5.45;;;13.60;99.90;;;;;;5075955;28;20358;-76